sensor_id;sensor_type;location;lat;lon;timestamp;temperature;humidity
47382;DHT22;33128;51.580;5.170;2023-04-16T00:01:39;9.70;99.90
47382;DHT22;33128;51.580;5.170;2023-04-16T00:04:04;10.00;99.90
47382;DHT22;33128;51.580;5.170;2023-04-16T00:06:30;9.80;99.90
47382;DHT22;33128;51.580;5.170;2023-04-16T00:08:56;9.60;99.90
47382;DHT22;33128;51.580;5.170;2023-04-16T00:11:22;9.80;99.90
47382;DHT22;33128;51.580;5.170;2023-04-16T00:13:47;9.90;99.90
47382;DHT22;33128;51.580;5.170;2023-04-16T00:16:13;9.70;99.90
47382;DHT22;33128;51.580;5.170;2023-04-16T00:18:39;9.80;99.90
47382;DHT22;33128;51.580;5.170;2023-04-16T00:21:05;9.70;99.90
47382;DHT22;33128;51.580;5.170;2023-04-16T00:23:30;9.70;99.90
47382;DHT22;33128;51.580;5.170;2023-04-16T00:25:56;9.50;99.90
47382;DHT22;33128;51.580;5.170;2023-04-16T00:28:24;9.80;99.90
47382;DHT22;33128;51.580;5.170;2023-04-16T00:30:50;9.60;99.90
47382;DHT22;33128;51.580;5.170;2023-04-16T00:33:16;9.70;99.90
47382;DHT22;33128;51.580;5.170;2023-04-16T00:35:44;9.80;99.90
47382;DHT22;33128;51.580;5.170;2023-04-16T00:38:10;9.30;99.90
47382;DHT22;33128;51.580;5.170;2023-04-16T00:40:36;10.30;99.90
47382;DHT22;33128;51.580;5.170;2023-04-16T00:43:02;10.20;99.90
47382;DHT22;33128;51.580;5.170;2023-04-16T00:45:27;9.90;99.90
47382;DHT22;33128;51.580;5.170;2023-04-16T00:47:53;10.00;99.90
47382;DHT22;33128;51.580;5.170;2023-04-16T00:50:19;9.80;99.90
47382;DHT22;33128;51.580;5.170;2023-04-16T00:52:47;9.60;99.90
47382;DHT22;33128;51.580;5.170;2023-04-16T00:55:12;9.70;99.90
47382;DHT22;33128;51.580;5.170;2023-04-16T00:57:39;9.80;99.90
47382;DHT22;33128;51.580;5.170;2023-04-16T01:00:05;9.80;99.90
47382;DHT22;33128;51.580;5.170;2023-04-16T01:02:32;10.20;99.90
47382;DHT22;33128;51.580;5.170;2023-04-16T01:04:59;10.10;99.90
47382;DHT22;33128;51.580;5.170;2023-04-16T01:07:25;9.90;99.90
47382;DHT22;33128;51.580;5.170;2023-04-16T01:09:50;10.10;99.90
47382;DHT22;33128;51.580;5.170;2023-04-16T01:12:16;10.00;99.90
47382;DHT22;33128;51.580;5.170;2023-04-16T01:14:42;10.30;99.90
47382;DHT22;33128;51.580;5.170;2023-04-16T01:17:07;10.10;99.90
47382;DHT22;33128;51.580;5.170;2023-04-16T01:19:33;9.80;99.90
47382;DHT22;33128;51.580;5.170;2023-04-16T01:22:03;10.20;99.90
47382;DHT22;33128;51.580;5.170;2023-04-16T01:24:29;10.00;99.90
47382;DHT22;33128;51.580;5.170;2023-04-16T01:26:57;10.10;99.90
47382;DHT22;33128;51.580;5.170;2023-04-16T01:29:23;10.00;99.90
47382;DHT22;33128;51.580;5.170;2023-04-16T01:31:49;10.00;99.90
47382;DHT22;33128;51.580;5.170;2023-04-16T01:34:15;9.90;99.90
47382;DHT22;33128;51.580;5.170;2023-04-16T01:36:40;10.10;99.90
47382;DHT22;33128;51.580;5.170;2023-04-16T01:39:06;10.10;99.90
47382;DHT22;33128;51.580;5.170;2023-04-16T01:41:33;10.00;99.90
47382;DHT22;33128;51.580;5.170;2023-04-16T01:43:59;9.80;99.90
47382;DHT22;33128;51.580;5.170;2023-04-16T01:46:29;10.00;99.90
47382;DHT22;33128;51.580;5.170;2023-04-16T01:48:56;10.30;99.90
47382;DHT22;33128;51.580;5.170;2023-04-16T01:51:25;10.30;99.90
47382;DHT22;33128;51.580;5.170;2023-04-16T01:53:52;9.90;99.90
47382;DHT22;33128;51.580;5.170;2023-04-16T01:56:18;10.20;99.90
47382;DHT22;33128;51.580;5.170;2023-04-16T01:58:43;10.30;99.90
47382;DHT22;33128;51.580;5.170;2023-04-16T02:01:10;10.40;99.90
47382;DHT22;33128;51.580;5.170;2023-04-16T02:03:38;10.90;99.90
47382;DHT22;33128;51.580;5.170;2023-04-16T02:06:04;10.70;99.90
47382;DHT22;33128;51.580;5.170;2023-04-16T02:08:30;10.60;99.90
47382;DHT22;33128;51.580;5.170;2023-04-16T02:10:56;10.50;99.90
47382;DHT22;33128;51.580;5.170;2023-04-16T02:13:22;10.40;99.90
47382;DHT22;33128;51.580;5.170;2023-04-16T02:15:50;10.10;99.90
47382;DHT22;33128;51.580;5.170;2023-04-16T02:18:16;10.10;99.90
47382;DHT22;33128;51.580;5.170;2023-04-16T02:20:43;10.40;99.90
47382;DHT22;33128;51.580;5.170;2023-04-16T02:23:09;10.20;99.90
47382;DHT22;33128;51.580;5.170;2023-04-16T02:25:41;10.40;99.90
47382;DHT22;33128;51.580;5.170;2023-04-16T02:28:12;10.40;99.90
47382;DHT22;33128;51.580;5.170;2023-04-16T02:30:45;10.20;99.90
47382;DHT22;33128;51.580;5.170;2023-04-16T02:33:11;10.10;99.90
47382;DHT22;33128;51.580;5.170;2023-04-16T02:35:40;10.40;99.90
47382;DHT22;33128;51.580;5.170;2023-04-16T02:38:05;10.80;99.90
47382;DHT22;33128;51.580;5.170;2023-04-16T02:40:31;10.90;99.90
47382;DHT22;33128;51.580;5.170;2023-04-16T02:42:57;10.20;99.90
47382;DHT22;33128;51.580;5.170;2023-04-16T02:45:23;10.10;99.90
47382;DHT22;33128;51.580;5.170;2023-04-16T02:47:49;10.10;99.90
47382;DHT22;33128;51.580;5.170;2023-04-16T02:50:16;9.90;99.90
47382;DHT22;33128;51.580;5.170;2023-04-16T02:52:42;10.10;99.90
47382;DHT22;33128;51.580;5.170;2023-04-16T02:55:08;9.90;99.90
47382;DHT22;33128;51.580;5.170;2023-04-16T02:57:34;9.60;99.90
47382;DHT22;33128;51.580;5.170;2023-04-16T02:59:59;9.70;99.90
47382;DHT22;33128;51.580;5.170;2023-04-16T03:02:25;9.80;99.90
47382;DHT22;33128;51.580;5.170;2023-04-16T03:04:54;9.80;99.90
47382;DHT22;33128;51.580;5.170;2023-04-16T03:07:20;9.60;99.90
47382;DHT22;33128;51.580;5.170;2023-04-16T03:09:46;9.60;99.90
47382;DHT22;33128;51.580;5.170;2023-04-16T03:12:11;9.70;99.90
47382;DHT22;33128;51.580;5.170;2023-04-16T03:14:37;9.70;99.90
47382;DHT22;33128;51.580;5.170;2023-04-16T03:17:02;10.10;99.90
47382;DHT22;33128;51.580;5.170;2023-04-16T03:19:28;9.70;99.90
47382;DHT22;33128;51.580;5.170;2023-04-16T03:21:54;9.80;99.90
47382;DHT22;33128;51.580;5.170;2023-04-16T03:24:19;9.80;99.90
47382;DHT22;33128;51.580;5.170;2023-04-16T03:26:45;9.70;99.90
47382;DHT22;33128;51.580;5.170;2023-04-16T03:29:10;9.70;99.90
47382;DHT22;33128;51.580;5.170;2023-04-16T03:31:36;9.70;99.90
47382;DHT22;33128;51.580;5.170;2023-04-16T03:34:01;9.70;99.90
47382;DHT22;33128;51.580;5.170;2023-04-16T03:36:27;9.60;99.90
47382;DHT22;33128;51.580;5.170;2023-04-16T03:38:52;9.60;99.90
47382;DHT22;33128;51.580;5.170;2023-04-16T03:41:18;9.60;99.90
47382;DHT22;33128;51.580;5.170;2023-04-16T03:43:44;9.70;99.90
47382;DHT22;33128;51.580;5.170;2023-04-16T03:46:09;9.60;99.90
47382;DHT22;33128;51.580;5.170;2023-04-16T03:48:35;9.60;99.90
47382;DHT22;33128;51.580;5.170;2023-04-16T03:51:01;9.60;99.90
47382;DHT22;33128;51.580;5.170;2023-04-16T03:53:27;9.90;99.90
47382;DHT22;33128;51.580;5.170;2023-04-16T03:55:52;10.10;99.90
47382;DHT22;33128;51.580;5.170;2023-04-16T03:58:18;10.40;99.90
47382;DHT22;33128;51.580;5.170;2023-04-16T04:00:45;9.80;99.90
47382;DHT22;33128;51.580;5.170;2023-04-16T04:03:11;9.80;99.90
47382;DHT22;33128;51.580;5.170;2023-04-16T04:05:40;9.50;99.90
47382;DHT22;33128;51.580;5.170;2023-04-16T04:08:06;9.80;99.90
47382;DHT22;33128;51.580;5.170;2023-04-16T04:10:33;9.60;99.90
47382;DHT22;33128;51.580;5.170;2023-04-16T04:12:59;9.80;99.90
47382;DHT22;33128;51.580;5.170;2023-04-16T04:15:25;10.00;99.90
47382;DHT22;33128;51.580;5.170;2023-04-16T04:17:51;9.80;99.90
47382;DHT22;33128;51.580;5.170;2023-04-16T04:20:19;10.20;99.90
47382;DHT22;33128;51.580;5.170;2023-04-16T04:22:45;10.00;99.90
47382;DHT22;33128;51.580;5.170;2023-04-16T04:25:10;9.90;99.90
47382;DHT22;33128;51.580;5.170;2023-04-16T04:27:36;9.60;99.90
47382;DHT22;33128;51.580;5.170;2023-04-16T04:30:02;9.80;99.90
47382;DHT22;33128;51.580;5.170;2023-04-16T04:32:29;10.00;99.90
47382;DHT22;33128;51.580;5.170;2023-04-16T04:34:55;9.70;99.90
47382;DHT22;33128;51.580;5.170;2023-04-16T04:37:23;9.60;99.90
47382;DHT22;33128;51.580;5.170;2023-04-16T04:39:49;9.70;99.90
47382;DHT22;33128;51.580;5.170;2023-04-16T04:42:16;9.80;99.90
47382;DHT22;33128;51.580;5.170;2023-04-16T04:44:46;9.80;99.90
47382;DHT22;33128;51.580;5.170;2023-04-16T04:47:12;9.80;99.90
47382;DHT22;33128;51.580;5.170;2023-04-16T04:49:38;10.00;99.90
47382;DHT22;33128;51.580;5.170;2023-04-16T04:52:03;10.00;99.90
47382;DHT22;33128;51.580;5.170;2023-04-16T04:54:30;9.80;99.90
47382;DHT22;33128;51.580;5.170;2023-04-16T04:56:56;9.80;99.90
47382;DHT22;33128;51.580;5.170;2023-04-16T04:59:23;10.00;99.90
47382;DHT22;33128;51.580;5.170;2023-04-16T05:01:49;9.90;99.90
47382;DHT22;33128;51.580;5.170;2023-04-16T05:04:15;10.10;99.90
47382;DHT22;33128;51.580;5.170;2023-04-16T05:06:41;10.00;99.90
47382;DHT22;33128;51.580;5.170;2023-04-16T05:09:09;9.80;99.90
47382;DHT22;33128;51.580;5.170;2023-04-16T05:11:40;9.80;99.90
47382;DHT22;33128;51.580;5.170;2023-04-16T05:14:06;9.70;99.90
47382;DHT22;33128;51.580;5.170;2023-04-16T05:16:34;9.60;99.90
47382;DHT22;33128;51.580;5.170;2023-04-16T05:19:00;9.70;99.90
47382;DHT22;33128;51.580;5.170;2023-04-16T05:21:26;9.80;99.90
47382;DHT22;33128;51.580;5.170;2023-04-16T05:23:52;10.20;99.90
47382;DHT22;33128;51.580;5.170;2023-04-16T05:26:18;9.90;99.90
47382;DHT22;33128;51.580;5.170;2023-04-16T05:28:44;9.80;99.90
47382;DHT22;33128;51.580;5.170;2023-04-16T05:31:09;9.60;99.90
47382;DHT22;33128;51.580;5.170;2023-04-16T05:33:35;9.60;99.90
47382;DHT22;33128;51.580;5.170;2023-04-16T05:36:00;9.50;99.90
47382;DHT22;33128;51.580;5.170;2023-04-16T05:38:26;9.90;99.90
47382;DHT22;33128;51.580;5.170;2023-04-16T05:40:51;10.00;99.90
47382;DHT22;33128;51.580;5.170;2023-04-16T05:43:17;9.60;99.90
47382;DHT22;33128;51.580;5.170;2023-04-16T05:45:42;9.80;99.90
47382;DHT22;33128;51.580;5.170;2023-04-16T05:48:09;10.00;99.90
47382;DHT22;33128;51.580;5.170;2023-04-16T05:50:44;9.90;99.90
47382;DHT22;33128;51.580;5.170;2023-04-16T05:53:10;9.90;99.90
47382;DHT22;33128;51.580;5.170;2023-04-16T05:55:38;9.80;99.90
47382;DHT22;33128;51.580;5.170;2023-04-16T05:58:03;9.80;99.90
47382;DHT22;33128;51.580;5.170;2023-04-16T06:00:32;9.70;99.90
47382;DHT22;33128;51.580;5.170;2023-04-16T06:02:58;9.80;99.90
47382;DHT22;33128;51.580;5.170;2023-04-16T06:05:27;9.80;99.90
47382;DHT22;33128;51.580;5.170;2023-04-16T06:07:53;9.70;99.90
47382;DHT22;33128;51.580;5.170;2023-04-16T06:10:18;9.90;99.90
47382;DHT22;33128;51.580;5.170;2023-04-16T06:12:44;10.20;99.90
47382;DHT22;33128;51.580;5.170;2023-04-16T06:15:10;10.60;99.90
47382;DHT22;33128;51.580;5.170;2023-04-16T06:17:35;10.10;99.90
47382;DHT22;33128;51.580;5.170;2023-04-16T06:20:01;10.50;99.90
47382;DHT22;33128;51.580;5.170;2023-04-16T06:22:26;10.30;99.90
47382;DHT22;33128;51.580;5.170;2023-04-16T06:24:52;10.60;99.90
47382;DHT22;33128;51.580;5.170;2023-04-16T06:27:18;10.60;99.90
47382;DHT22;33128;51.580;5.170;2023-04-16T06:29:43;10.40;99.90
47382;DHT22;33128;51.580;5.170;2023-04-16T06:32:09;10.10;99.90
47382;DHT22;33128;51.580;5.170;2023-04-16T06:34:37;9.80;99.90
47382;DHT22;33128;51.580;5.170;2023-04-16T06:37:06;9.70;99.90
47382;DHT22;33128;51.580;5.170;2023-04-16T06:39:32;9.60;99.90
47382;DHT22;33128;51.580;5.170;2023-04-16T06:41:57;9.60;99.90
47382;DHT22;33128;51.580;5.170;2023-04-16T06:44:23;9.60;99.90
47382;DHT22;33128;51.580;5.170;2023-04-16T06:46:49;9.70;99.90
47382;DHT22;33128;51.580;5.170;2023-04-16T06:49:15;9.80;99.90
47382;DHT22;33128;51.580;5.170;2023-04-16T06:51:41;9.80;99.90
47382;DHT22;33128;51.580;5.170;2023-04-16T06:54:06;9.60;99.90
47382;DHT22;33128;51.580;5.170;2023-04-16T06:56:32;9.90;99.90
47382;DHT22;33128;51.580;5.170;2023-04-16T06:58:58;9.70;99.90
47382;DHT22;33128;51.580;5.170;2023-04-16T07:01:25;9.70;99.90
47382;DHT22;33128;51.580;5.170;2023-04-16T07:03:51;9.80;99.90
47382;DHT22;33128;51.580;5.170;2023-04-16T07:06:16;9.80;99.90
47382;DHT22;33128;51.580;5.170;2023-04-16T07:08:42;9.50;99.90
47382;DHT22;33128;51.580;5.170;2023-04-16T07:11:08;10.10;99.90
47382;DHT22;33128;51.580;5.170;2023-04-16T07:13:33;9.70;99.90
47382;DHT22;33128;51.580;5.170;2023-04-16T07:15:59;9.90;99.90
47382;DHT22;33128;51.580;5.170;2023-04-16T07:18:27;9.90;99.90
47382;DHT22;33128;51.580;5.170;2023-04-16T07:20:56;9.90;99.90
47382;DHT22;33128;51.580;5.170;2023-04-16T07:23:22;10.10;99.90
47382;DHT22;33128;51.580;5.170;2023-04-16T07:25:47;10.40;99.90
47382;DHT22;33128;51.580;5.170;2023-04-16T07:28:13;10.30;99.90
47382;DHT22;33128;51.580;5.170;2023-04-16T07:30:41;10.00;99.90
47382;DHT22;33128;51.580;5.170;2023-04-16T07:33:06;10.10;99.90
47382;DHT22;33128;51.580;5.170;2023-04-16T07:35:32;10.20;99.90
47382;DHT22;33128;51.580;5.170;2023-04-16T07:37:57;10.50;99.90
47382;DHT22;33128;51.580;5.170;2023-04-16T07:40:23;10.30;99.90
47382;DHT22;33128;51.580;5.170;2023-04-16T07:42:49;10.70;99.90
47382;DHT22;33128;51.580;5.170;2023-04-16T07:45:16;10.10;99.90
47382;DHT22;33128;51.580;5.170;2023-04-16T07:47:41;10.60;99.90
47382;DHT22;33128;51.580;5.170;2023-04-16T07:50:07;10.50;99.90
47382;DHT22;33128;51.580;5.170;2023-04-16T07:52:33;10.30;99.90
47382;DHT22;33128;51.580;5.170;2023-04-16T07:54:59;10.00;99.90
47382;DHT22;33128;51.580;5.170;2023-04-16T07:57:24;10.10;99.90
47382;DHT22;33128;51.580;5.170;2023-04-16T07:59:50;10.30;99.90
47382;DHT22;33128;51.580;5.170;2023-04-16T08:02:16;10.40;99.90
47382;DHT22;33128;51.580;5.170;2023-04-16T08:04:42;10.50;99.90
47382;DHT22;33128;51.580;5.170;2023-04-16T08:07:08;10.40;99.90
47382;DHT22;33128;51.580;5.170;2023-04-16T08:09:34;10.20;99.90
47382;DHT22;33128;51.580;5.170;2023-04-16T08:12:02;10.10;99.90
47382;DHT22;33128;51.580;5.170;2023-04-16T08:14:28;10.50;99.90
47382;DHT22;33128;51.580;5.170;2023-04-16T08:16:53;10.30;99.90
47382;DHT22;33128;51.580;5.170;2023-04-16T08:19:19;10.20;99.90
47382;DHT22;33128;51.580;5.170;2023-04-16T08:21:45;10.30;99.90
47382;DHT22;33128;51.580;5.170;2023-04-16T08:24:11;10.20;99.90
47382;DHT22;33128;51.580;5.170;2023-04-16T08:26:36;10.20;99.90
47382;DHT22;33128;51.580;5.170;2023-04-16T08:29:02;9.90;99.90
47382;DHT22;33128;51.580;5.170;2023-04-16T08:31:27;10.40;99.90
47382;DHT22;33128;51.580;5.170;2023-04-16T08:33:53;10.30;99.90
47382;DHT22;33128;51.580;5.170;2023-04-16T08:36:19;10.20;99.90
47382;DHT22;33128;51.580;5.170;2023-04-16T08:38:48;10.30;99.90
47382;DHT22;33128;51.580;5.170;2023-04-16T08:41:13;10.30;99.90
47382;DHT22;33128;51.580;5.170;2023-04-16T08:43:43;10.20;99.90
47382;DHT22;33128;51.580;5.170;2023-04-16T08:46:10;10.00;99.90
47382;DHT22;33128;51.580;5.170;2023-04-16T08:48:36;9.80;99.90
47382;DHT22;33128;51.580;5.170;2023-04-16T08:51:08;9.90;99.90
47382;DHT22;33128;51.580;5.170;2023-04-16T08:56:22;10.10;99.90
47382;DHT22;33128;51.580;5.170;2023-04-16T08:58:49;10.20;99.90
47382;DHT22;33128;51.580;5.170;2023-04-16T09:01:19;10.30;99.90
47382;DHT22;33128;51.580;5.170;2023-04-16T09:03:47;10.40;99.90
47382;DHT22;33128;51.580;5.170;2023-04-16T09:06:14;10.30;99.90
47382;DHT22;33128;51.580;5.170;2023-04-16T09:08:42;10.30;99.90
47382;DHT22;33128;51.580;5.170;2023-04-16T09:11:08;10.20;99.90
47382;DHT22;33128;51.580;5.170;2023-04-16T09:13:38;10.30;99.90
47382;DHT22;33128;51.580;5.170;2023-04-16T09:16:06;10.30;99.90
47382;DHT22;33128;51.580;5.170;2023-04-16T09:18:32;10.30;99.90
47382;DHT22;33128;51.580;5.170;2023-04-16T09:20:57;10.30;99.90
47382;DHT22;33128;51.580;5.170;2023-04-16T09:23:23;10.20;99.90
47382;DHT22;33128;51.580;5.170;2023-04-16T09:25:49;10.30;99.90
47382;DHT22;33128;51.580;5.170;2023-04-16T09:28:40;10.30;99.90
47382;DHT22;33128;51.580;5.170;2023-04-16T09:31:15;10.20;99.90
47382;DHT22;33128;51.580;5.170;2023-04-16T09:34:03;10.10;99.90
47382;DHT22;33128;51.580;5.170;2023-04-16T09:36:29;10.40;99.90
47382;DHT22;33128;51.580;5.170;2023-04-16T09:38:58;10.30;99.90
47382;DHT22;33128;51.580;5.170;2023-04-16T09:41:29;10.20;99.90
47382;DHT22;33128;51.580;5.170;2023-04-16T09:43:57;10.00;99.90
47382;DHT22;33128;51.580;5.170;2023-04-16T09:46:23;10.00;99.90
47382;DHT22;33128;51.580;5.170;2023-04-16T09:48:49;10.10;99.90
47382;DHT22;33128;51.580;5.170;2023-04-16T09:51:15;10.50;99.90
47382;DHT22;33128;51.580;5.170;2023-04-16T09:53:41;10.40;99.90
47382;DHT22;33128;51.580;5.170;2023-04-16T09:56:07;10.30;99.90
47382;DHT22;33128;51.580;5.170;2023-04-16T09:58:35;10.50;99.90
47382;DHT22;33128;51.580;5.170;2023-04-16T10:01:07;10.30;99.90
47382;DHT22;33128;51.580;5.170;2023-04-16T10:03:35;10.50;99.90
47382;DHT22;33128;51.580;5.170;2023-04-16T10:06:23;10.50;99.90
47382;DHT22;33128;51.580;5.170;2023-04-16T10:08:53;10.50;99.90
47382;DHT22;33128;51.580;5.170;2023-04-16T10:11:22;10.60;99.90
47382;DHT22;33128;51.580;5.170;2023-04-16T10:13:48;10.50;99.90
47382;DHT22;33128;51.580;5.170;2023-04-16T10:16:14;10.60;99.90
47382;DHT22;33128;51.580;5.170;2023-04-16T10:18:42;10.50;99.90
47382;DHT22;33128;51.580;5.170;2023-04-16T10:21:08;10.50;99.90
47382;DHT22;33128;51.580;5.170;2023-04-16T10:23:37;10.50;99.90
47382;DHT22;33128;51.580;5.170;2023-04-16T10:26:04;10.70;99.90
47382;DHT22;33128;51.580;5.170;2023-04-16T10:28:34;12.20;99.90
47382;DHT22;33128;51.580;5.170;2023-04-16T10:31:04;12.90;99.90
47382;DHT22;33128;51.580;5.170;2023-04-16T10:33:36;13.30;99.90
47382;DHT22;33128;51.580;5.170;2023-04-16T10:36:14;13.60;99.90
47382;DHT22;33128;51.580;5.170;2023-04-16T10:38:50;13.80;99.90
47382;DHT22;33128;51.580;5.170;2023-04-16T10:41:19;14.00;99.90
47382;DHT22;33128;51.580;5.170;2023-04-16T10:43:50;14.10;99.90
47382;DHT22;33128;51.580;5.170;2023-04-16T10:46:25;14.20;99.90
47382;DHT22;33128;51.580;5.170;2023-04-16T10:48:55;14.30;99.90
47382;DHT22;33128;51.580;5.170;2023-04-16T10:53:54;14.40;99.90
47382;DHT22;33128;51.580;5.170;2023-04-16T10:56:26;14.50;99.90
47382;DHT22;33128;51.580;5.170;2023-04-16T10:58:55;14.50;99.90
47382;DHT22;33128;51.580;5.170;2023-04-16T11:01:35;14.60;99.90
47382;DHT22;33128;51.580;5.170;2023-04-16T11:12:41;14.80;99.90
47382;DHT22;33128;51.580;5.170;2023-04-16T11:15:14;14.80;99.90
47382;DHT22;33128;51.580;5.170;2023-04-16T11:20:14;14.80;99.90
47382;DHT22;33128;51.580;5.170;2023-04-16T11:22:40;14.80;99.90
47382;DHT22;33128;51.580;5.170;2023-04-16T11:25:07;14.70;99.90
47382;DHT22;33128;51.580;5.170;2023-04-16T11:27:33;14.70;99.90
47382;DHT22;33128;51.580;5.170;2023-04-16T11:30:04;14.70;99.90
47382;DHT22;33128;51.580;5.170;2023-04-16T11:32:33;14.80;99.90
47382;DHT22;33128;51.580;5.170;2023-04-16T11:35:00;14.80;99.90
47382;DHT22;33128;51.580;5.170;2023-04-16T11:37:33;14.80;99.90
47382;DHT22;33128;51.580;5.170;2023-04-16T11:39:58;14.90;99.90
47382;DHT22;33128;51.580;5.170;2023-04-16T11:42:25;15.00;99.90
47382;DHT22;33128;51.580;5.170;2023-04-16T11:44:57;15.00;99.90
47382;DHT22;33128;51.580;5.170;2023-04-16T11:47:25;15.00;99.90
47382;DHT22;33128;51.580;5.170;2023-04-16T11:49:51;15.10;99.90
47382;DHT22;33128;51.580;5.170;2023-04-16T11:52:31;15.10;99.90
47382;DHT22;33128;51.580;5.170;2023-04-16T11:54:58;15.10;99.90
47382;DHT22;33128;51.580;5.170;2023-04-16T11:59:49;15.10;99.90
47382;DHT22;33128;51.580;5.170;2023-04-16T12:02:15;15.10;99.90
47382;DHT22;33128;51.580;5.170;2023-04-16T12:04:41;15.10;99.90
47382;DHT22;33128;51.580;5.170;2023-04-16T12:07:11;15.00;99.90
47382;DHT22;33128;51.580;5.170;2023-04-16T12:09:39;15.10;99.90
47382;DHT22;33128;51.580;5.170;2023-04-16T12:12:05;15.10;99.90
47382;DHT22;33128;51.580;5.170;2023-04-16T12:14:31;15.10;99.90
47382;DHT22;33128;51.580;5.170;2023-04-16T12:17:17;15.10;99.90
47382;DHT22;33128;51.580;5.170;2023-04-16T12:19:55;15.10;99.90
47382;DHT22;33128;51.580;5.170;2023-04-16T12:22:38;15.10;99.90
47382;DHT22;33128;51.580;5.170;2023-04-16T12:25:15;15.20;99.90
47382;DHT22;33128;51.580;5.170;2023-04-16T12:27:53;15.20;99.90
47382;DHT22;33128;51.580;5.170;2023-04-16T12:30:23;15.20;99.90
47382;DHT22;33128;51.580;5.170;2023-04-16T12:32:53;15.30;99.90
47382;DHT22;33128;51.580;5.170;2023-04-16T12:35:37;15.30;99.90
47382;DHT22;33128;51.580;5.170;2023-04-16T12:38:03;15.40;99.90
47382;DHT22;33128;51.580;5.170;2023-04-16T12:40:28;15.50;99.90
47382;DHT22;33128;51.580;5.170;2023-04-16T12:42:54;15.60;99.90
47382;DHT22;33128;51.580;5.170;2023-04-16T12:45:20;15.70;99.90
47382;DHT22;33128;51.580;5.170;2023-04-16T12:47:46;15.70;99.90
47382;DHT22;33128;51.580;5.170;2023-04-16T12:50:12;15.70;99.90
47382;DHT22;33128;51.580;5.170;2023-04-16T12:52:38;15.60;99.90
47382;DHT22;33128;51.580;5.170;2023-04-16T12:55:04;15.50;99.90
47382;DHT22;33128;51.580;5.170;2023-04-16T12:57:30;15.50;99.90
47382;DHT22;33128;51.580;5.170;2023-04-16T12:59:56;15.50;99.90
47382;DHT22;33128;51.580;5.170;2023-04-16T13:02:22;15.50;99.90
47382;DHT22;33128;51.580;5.170;2023-04-16T13:04:49;15.50;99.90
47382;DHT22;33128;51.580;5.170;2023-04-16T13:07:14;15.50;99.90
47382;DHT22;33128;51.580;5.170;2023-04-16T13:09:41;15.50;99.90
47382;DHT22;33128;51.580;5.170;2023-04-16T13:12:07;15.50;99.90
47382;DHT22;33128;51.580;5.170;2023-04-16T13:14:33;15.50;99.90
47382;DHT22;33128;51.580;5.170;2023-04-16T13:16:58;15.50;99.90
47382;DHT22;33128;51.580;5.170;2023-04-16T13:19:24;15.50;99.90
47382;DHT22;33128;51.580;5.170;2023-04-16T13:21:49;15.50;99.90
47382;DHT22;33128;51.580;5.170;2023-04-16T13:24:15;15.60;99.90
47382;DHT22;33128;51.580;5.170;2023-04-16T13:26:44;15.60;99.90
47382;DHT22;33128;51.580;5.170;2023-04-16T13:29:09;15.70;99.90
47382;DHT22;33128;51.580;5.170;2023-04-16T13:31:35;15.60;99.90
47382;DHT22;33128;51.580;5.170;2023-04-16T13:34:01;15.60;99.90
47382;DHT22;33128;51.580;5.170;2023-04-16T13:36:28;15.60;99.90
47382;DHT22;33128;51.580;5.170;2023-04-16T13:38:55;15.70;99.90
47382;DHT22;33128;51.580;5.170;2023-04-16T13:41:20;15.80;99.90
47382;DHT22;33128;51.580;5.170;2023-04-16T13:43:46;15.80;99.90
47382;DHT22;33128;51.580;5.170;2023-04-16T13:46:12;15.80;99.90
47382;DHT22;33128;51.580;5.170;2023-04-16T13:48:37;15.70;99.90
47382;DHT22;33128;51.580;5.170;2023-04-16T13:51:03;15.80;99.90
47382;DHT22;33128;51.580;5.170;2023-04-16T13:53:28;15.80;99.90
47382;DHT22;33128;51.580;5.170;2023-04-16T13:55:54;15.80;99.90
47382;DHT22;33128;51.580;5.170;2023-04-16T13:58:20;15.80;99.90
47382;DHT22;33128;51.580;5.170;2023-04-16T14:00:45;15.80;99.90
47382;DHT22;33128;51.580;5.170;2023-04-16T14:03:11;15.80;99.90
47382;DHT22;33128;51.580;5.170;2023-04-16T14:05:37;15.70;99.90
47382;DHT22;33128;51.580;5.170;2023-04-16T14:08:02;15.60;99.90
47382;DHT22;33128;51.580;5.170;2023-04-16T14:10:30;15.60;99.90
47382;DHT22;33128;51.580;5.170;2023-04-16T14:12:56;15.50;99.90
47382;DHT22;33128;51.580;5.170;2023-04-16T14:15:22;15.40;99.90
47382;DHT22;33128;51.580;5.170;2023-04-16T14:17:47;15.40;99.90
47382;DHT22;33128;51.580;5.170;2023-04-16T14:20:13;15.30;99.90
47382;DHT22;33128;51.580;5.170;2023-04-16T14:22:39;15.30;99.90
47382;DHT22;33128;51.580;5.170;2023-04-16T14:25:08;15.20;99.90
47382;DHT22;33128;51.580;5.170;2023-04-16T14:27:33;15.20;99.90
47382;DHT22;33128;51.580;5.170;2023-04-16T14:29:59;15.10;99.90
47382;DHT22;33128;51.580;5.170;2023-04-16T14:32:25;15.10;99.90
47382;DHT22;33128;51.580;5.170;2023-04-16T14:34:51;15.10;99.90
47382;DHT22;33128;51.580;5.170;2023-04-16T14:37:17;15.10;99.90
47382;DHT22;33128;51.580;5.170;2023-04-16T14:39:43;15.10;99.90
47382;DHT22;33128;51.580;5.170;2023-04-16T14:42:09;15.10;99.90
47382;DHT22;33128;51.580;5.170;2023-04-16T14:44:35;15.20;99.90
47382;DHT22;33128;51.580;5.170;2023-04-16T14:47:00;15.20;99.90
47382;DHT22;33128;51.580;5.170;2023-04-16T14:49:26;15.30;99.90
47382;DHT22;33128;51.580;5.170;2023-04-16T14:51:52;15.30;99.90
47382;DHT22;33128;51.580;5.170;2023-04-16T14:54:18;15.30;99.90
47382;DHT22;33128;51.580;5.170;2023-04-16T14:56:44;15.30;99.90
47382;DHT22;33128;51.580;5.170;2023-04-16T14:59:10;15.30;99.90
47382;DHT22;33128;51.580;5.170;2023-04-16T15:01:36;15.30;99.90
47382;DHT22;33128;51.580;5.170;2023-04-16T15:04:05;15.20;99.90
47382;DHT22;33128;51.580;5.170;2023-04-16T15:06:32;15.30;99.90
47382;DHT22;33128;51.580;5.170;2023-04-16T15:08:58;15.30;99.90
47382;DHT22;33128;51.580;5.170;2023-04-16T15:11:23;15.30;99.90
47382;DHT22;33128;51.580;5.170;2023-04-16T15:13:49;15.30;99.90
47382;DHT22;33128;51.580;5.170;2023-04-16T15:16:15;15.30;99.90
47382;DHT22;33128;51.580;5.170;2023-04-16T15:18:41;15.30;99.90
47382;DHT22;33128;51.580;5.170;2023-04-16T15:21:06;15.30;99.90
47382;DHT22;33128;51.580;5.170;2023-04-16T15:23:32;15.30;99.90
47382;DHT22;33128;51.580;5.170;2023-04-16T15:25:58;15.30;99.90
47382;DHT22;33128;51.580;5.170;2023-04-16T15:28:23;15.30;99.90
47382;DHT22;33128;51.580;5.170;2023-04-16T15:30:49;15.30;99.90
47382;DHT22;33128;51.580;5.170;2023-04-16T15:33:16;15.30;99.90
47382;DHT22;33128;51.580;5.170;2023-04-16T15:35:42;15.40;99.90
47382;DHT22;33128;51.580;5.170;2023-04-16T15:38:08;15.40;99.90
47382;DHT22;33128;51.580;5.170;2023-04-16T15:40:34;15.40;99.90
47382;DHT22;33128;51.580;5.170;2023-04-16T15:43:00;15.40;99.90
47382;DHT22;33128;51.580;5.170;2023-04-16T15:45:26;15.30;99.90
47382;DHT22;33128;51.580;5.170;2023-04-16T15:47:51;15.40;99.90
47382;DHT22;33128;51.580;5.170;2023-04-16T15:50:18;15.40;99.90
47382;DHT22;33128;51.580;5.170;2023-04-16T15:52:45;15.40;99.90